KBTM/BTM METAR and TAF weather

Enter ICAO airport designator
Station Type Date Time Source
KBTM METAR 2018/04/26 14:53 UTC NOAA

KBTM 261453Z AUTO 15003KT 10SM CLR 03/M02 A3029 RMK AO2 SLP251 T00331017 50005


Station Type Date Time Source
KBTM Decoded METAR 2018/04/26 14:53 UTC NOAA

BERT MOONEY AIRPORT, MT, United States (KBTM) 45-58N 112-30W 1688M
Apr 26, 2018 - 10:53 AM EDT / 2018.04.26 1453 UTC
Wind: from the SSE (150 degrees) at 3 MPH (3 KT):0
Visibility: 10 mile(s):0
Sky conditions: clear
Temperature: 37.9 F (3.3 C)
Dew Point: 28.9 F (-1.7 C)
Relative Humidity: 69%
Pressure (altimeter): 30.29 in. Hg (1025 hPa)
Pressure tendency: 0.01 inches (0.5 hPa) higher than three hours ago
ob: KBTM 261453Z AUTO 15003KT 10SM CLR 03/M02 A3029 RMK AO2 SLP251 T00331017 50005
cycle: 15

Station Type Date Time Source
KBTM TAF 2018/04/26 12:22 UTC NOAA

TAF KBTM 261120Z 2612/2712 11003KT P6SM SKC
FM261700 21005KT P6SM SKC


Example: see airport list